PWSweather.com
Personal Weather Stations
Station Observations
IMAZOWIE6
WarszawaPL

WarszawaPL

Lat: 52.27957, Lon: 21.05489

Elevation: 100

Station Type: WS1080

http://stacjapogody.waw.pl/

High Low Average
Temperature 80.6°F27.0°C 57.0°F13.9°C 71.5°F21.9°C
Dew Point 12.9°F-10.6°C -167.0°F-110.6°C -149.3°F-100.7°C
Winds 1.4 mph 2.3 kmh Calm Calm Calm NCalm N
Wind Gusts 3.4 mph5.5 kmh -- 1.0 mph1.6 kmh
Humidity 16% 10% 13%
Pressure 29.75 in1007.5 mb 29.66 in1004.4 mb -
Precipitation 0.00 in0.0 mm - -
Hour Temp Dew Point Humidity Winds Wind Gusts Pressure Precip Precip Rate Daily Precip Total
12:04 AM 60.6°F15.9°C -166.7°F-110.4°C - Calm Calm -- 29.66 in1004.4 mb 0.00 in0.0 mm 0.00 in0.0 mm 0.00 in0.0 mm
12:19 AM 60.3°F15.7°C -166.8°F-110.4°C - Calm Calm -- 29.66 in1004.4 mb 0.00 in0.0 mm 0.00 in0.0 mm 0.00 in0.0 mm
12:34 AM 59.9°F15.5°C -166.8°F-110.4°C - Calm Calm -- 29.66 in1004.4 mb 0.00 in0.0 mm 0.00 in0.0 mm 0.00 in0.0 mm
12:49 AM 59.7°F15.4°C -166.8°F-110.4°C - Calm Calm -- 29.67 in1004.7 mb 0.00 in0.0 mm 0.00 in0.0 mm 0.00 in0.0 mm
01:04 AM 59.5°F15.3°C -166.8°F-110.4°C - Calm Calm -- 29.67 in1004.7 mb 0.00 in0.0 mm 0.00 in0.0 mm 0.00 in0.0 mm
01:19 AM 59.0°F15.0°C -166.9°F-110.5°C - Calm Calm -- 29.68 in1005.1 mb 0.00 in0.0 mm 0.00 in0.0 mm 0.00 in0.0 mm
01:34 AM 58.8°F14.9°C -166.9°F-110.5°C - Calm Calm 0.6 mph1.0 kmh 29.68 in1005.1 mb 0.00 in0.0 mm 0.00 in0.0 mm 0.00 in0.0 mm
01:49 AM 58.6°F14.8°C -166.9°F-110.5°C - Calm Calm -- 29.68 in1005.1 mb 0.00 in0.0 mm 0.00 in0.0 mm 0.00 in0.0 mm
02:04 AM 58.3°F14.6°C -167.0°F-110.6°C - Calm Calm 0.6 mph1.0 kmh 29.69 in1005.4 mb 0.00 in0.0 mm 0.00 in0.0 mm 0.00 in0.0 mm
02:19 AM 58.1°F14.5°C -167.0°F-110.6°C - Calm Calm -- 29.69 in1005.4 mb 0.00 in0.0 mm 0.00 in0.0 mm 0.00 in0.0 mm
02:35 AM 57.7°F14.3°C 1.5°F-16.9°C 10% Calm Calm 0.6 mph1.0 kmh 29.68 in1005.1 mb 0.00 in0.0 mm 0.00 in0.0 mm 0.00 in0.0 mm
02:49 AM 57.4°F14.1°C 3.3°F-15.9°C 11% Calm Calm -- 29.69 in1005.4 mb 0.00 in0.0 mm 0.00 in0.0 mm 0.00 in0.0 mm
03:04 AM 57.2°F14.0°C 5.0°F-15.0°C 12% Calm Calm -- 29.69 in1005.4 mb 0.00 in0.0 mm 0.00 in0.0 mm 0.00 in0.0 mm
03:19 AM 57.0°F13.9°C 6.6°F-14.1°C 13% Calm Calm -- 29.70 in1005.8 mb 0.00 in0.0 mm 0.00 in0.0 mm 0.00 in0.0 mm
03:34 AM 57.6°F14.2°C 10.1°F-12.2°C 15% Calm Calm -- 29.70 in1005.8 mb 0.00 in0.0 mm 0.00 in0.0 mm 0.00 in0.0 mm
03:49 AM 59.2°F15.1°C 12.9°F-10.6°C 16% Calm Calm -- 29.71 in1006.1 mb 0.00 in0.0 mm 0.00 in0.0 mm 0.00 in0.0 mm
04:04 AM 60.3°F15.7°C 12.3°F-10.9°C 15% Calm Calm -- 29.71 in1006.1 mb 0.00 in0.0 mm 0.00 in0.0 mm 0.00 in0.0 mm
04:19 AM 60.8°F16.0°C 11.2°F-11.6°C 14% Calm Calm -- 29.71 in1006.1 mb 0.00 in0.0 mm 0.00 in0.0 mm 0.00 in0.0 mm
04:34 AM 62.6°F17.0°C 7.4°F-13.7°C 11% Calm Calm -- 29.72 in1006.4 mb 0.00 in0.0 mm 0.00 in0.0 mm 0.00 in0.0 mm
04:49 AM 64.4°F18.0°C -166.4°F-110.2°C - Calm Calm 0.6 mph1.0 kmh 29.72 in1006.4 mb 0.00 in0.0 mm 0.00 in0.0 mm 0.00 in0.0 mm
05:04 AM 66.2°F19.0°C -166.2°F-110.1°C - Calm Calm -- 29.71 in1006.1 mb 0.00 in0.0 mm 0.00 in0.0 mm 0.00 in0.0 mm
05:19 AM 67.5°F19.7°C -166.1°F-110.1°C - Calm Calm -- 29.71 in1006.1 mb 0.00 in0.0 mm 0.00 in0.0 mm 0.00 in0.0 mm
05:34 AM 68.7°F20.4°C -165.9°F-109.9°C - Calm Calm -- 29.71 in1006.1 mb 0.00 in0.0 mm 0.00 in0.0 mm 0.00 in0.0 mm
05:49 AM 70.7°F21.5°C -165.7°F-109.8°C - Calm Calm 0.6 mph1.0 kmh 29.72 in1006.4 mb 0.00 in0.0 mm 0.00 in0.0 mm 0.00 in0.0 mm
06:04 AM 72.5°F22.5°C -165.6°F-109.8°C - Calm Calm 1.4 mph2.3 kmh 29.72 in1006.4 mb 0.00 in0.0 mm 0.00 in0.0 mm 0.00 in0.0 mm
06:19 AM 73.0°F22.8°C -165.5°F-109.7°C - Calm Calm 0.6 mph1.0 kmh 29.73 in1006.8 mb 0.00 in0.0 mm 0.00 in0.0 mm 0.00 in0.0 mm
06:34 AM 74.3°F23.5°C -165.4°F-109.7°C - Calm Calm 0.6 mph1.0 kmh 29.73 in1006.8 mb 0.00 in0.0 mm 0.00 in0.0 mm 0.00 in0.0 mm
06:49 AM 74.3°F23.5°C -165.4°F-109.7°C - Calm Calm 0.6 mph1.0 kmh 29.74 in1007.1 mb 0.00 in0.0 mm 0.00 in0.0 mm 0.00 in0.0 mm
07:04 AM 74.3°F23.5°C -165.4°F-109.7°C - Calm Calm 0.6 mph1.0 kmh 29.74 in1007.1 mb 0.00 in0.0 mm 0.00 in0.0 mm 0.00 in0.0 mm
07:19 AM 74.1°F23.4°C -165.4°F-109.7°C - Calm Calm 0.6 mph1.0 kmh 29.75 in1007.5 mb 0.00 in0.0 mm 0.00 in0.0 mm 0.00 in0.0 mm
07:34 AM 73.4°F23.0°C -165.5°F-109.7°C - Calm Calm 1.4 mph2.3 kmh 29.75 in1007.5 mb 0.00 in0.0 mm 0.00 in0.0 mm 0.00 in0.0 mm
07:49 AM 75.0°F23.9°C -165.3°F-109.6°C - Calm Calm 0.6 mph1.0 kmh 29.75 in1007.5 mb 0.00 in0.0 mm 0.00 in0.0 mm 0.00 in0.0 mm
08:04 AM 75.0°F23.9°C -165.3°F-109.6°C - Calm Calm 0.6 mph1.0 kmh 29.75 in1007.5 mb 0.00 in0.0 mm 0.00 in0.0 mm 0.00 in0.0 mm
08:19 AM 75.9°F24.4°C -165.2°F-109.6°C - Calm Calm 0.6 mph1.0 kmh 29.75 in1007.5 mb 0.00 in0.0 mm 0.00 in0.0 mm 0.00 in0.0 mm
08:34 AM 76.1°F24.5°C -165.2°F-109.6°C - Calm Calm 0.6 mph1.0 kmh 29.75 in1007.5 mb 0.00 in0.0 mm 0.00 in0.0 mm 0.00 in0.0 mm
08:49 AM 76.5°F24.7°C -165.2°F-109.6°C - Calm Calm 0.6 mph1.0 kmh 29.75 in1007.5 mb 0.00 in0.0 mm 0.00 in0.0 mm 0.00 in0.0 mm
09:04 AM 77.4°F25.2°C -165.1°F-109.5°C - Calm Calm 2.0 mph3.2 kmh 29.75 in1007.5 mb 0.00 in0.0 mm 0.00 in0.0 mm 0.00 in0.0 mm
09:19 AM 79.2°F26.2°C -164.9°F-109.4°C - Calm Calm 1.4 mph2.3 kmh 29.75 in1007.5 mb 0.00 in0.0 mm 0.00 in0.0 mm 0.00 in0.0 mm
09:34 AM 79.3°F26.3°C -164.9°F-109.4°C - Calm Calm 0.6 mph1.0 kmh 29.75 in1007.5 mb 0.00 in0.0 mm 0.00 in0.0 mm 0.00 in0.0 mm
09:49 AM 80.6°F27.0°C -164.7°F-109.3°C - Calm Calm 0.6 mph1.0 kmh 29.75 in1007.5 mb 0.00 in0.0 mm 0.00 in0.0 mm 0.00 in0.0 mm
10:04 AM 79.5°F26.4°C -164.8°F-109.3°C - Calm Calm 0.6 mph1.0 kmh 29.75 in1007.5 mb 0.00 in0.0 mm 0.00 in0.0 mm 0.00 in0.0 mm
10:19 AM 79.5°F26.4°C -164.8°F-109.3°C - Calm Calm 1.4 mph2.3 kmh 29.75 in1007.5 mb 0.00 in0.0 mm 0.00 in0.0 mm 0.00 in0.0 mm
10:34 AM 79.7°F26.5°C -164.8°F-109.3°C - Calm Calm 0.6 mph1.0 kmh 29.75 in1007.5 mb 0.00 in0.0 mm 0.00 in0.0 mm 0.00 in0.0 mm
10:49 AM 79.2°F26.2°C -164.9°F-109.4°C - Calm Calm 0.6 mph1.0 kmh 29.75 in1007.5 mb 0.00 in0.0 mm 0.00 in0.0 mm 0.00 in0.0 mm
11:04 AM 77.7°F25.4°C -165.0°F-109.4°C - Calm Calm 2.0 mph3.2 kmh 29.75 in1007.5 mb 0.00 in0.0 mm 0.00 in0.0 mm 0.00 in0.0 mm
11:19 AM 77.4°F25.2°C -165.1°F-109.5°C - 1.4 mph N2.3 kmh N 3.4 mph5.5 kmh 29.75 in1007.5 mb 0.00 in0.0 mm 0.00 in0.0 mm 0.00 in0.0 mm
11:34 AM 77.4°F25.2°C -165.1°F-109.5°C - Calm Calm 2.0 mph3.2 kmh 29.75 in1007.5 mb 0.00 in0.0 mm 0.00 in0.0 mm 0.00 in0.0 mm
11:49 AM 77.9°F25.5°C -165.0°F-109.4°C - Calm Calm 1.4 mph2.3 kmh 29.75 in1007.5 mb 0.00 in0.0 mm 0.00 in0.0 mm 0.00 in0.0 mm
12:04 PM 78.1°F25.6°C -165.0°F-109.4°C - Calm Calm 0.6 mph1.0 kmh 29.75 in1007.5 mb 0.00 in0.0 mm 0.00 in0.0 mm 0.00 in0.0 mm
12:19 PM 78.4°F25.8°C -165.0°F-109.4°C - Calm Calm 1.4 mph2.3 kmh 29.75 in1007.5 mb 0.00 in0.0 mm 0.00 in0.0 mm 0.00 in0.0 mm
12:34 PM 78.4°F25.8°C -165.0°F-109.4°C - Calm Calm 0.6 mph1.0 kmh 29.75 in1007.5 mb 0.00 in0.0 mm 0.00 in0.0 mm 0.00 in0.0 mm
12:49 PM 78.1°F25.6°C -165.0°F-109.4°C - 0.6 mph N1.0 kmh N 2.8 mph4.5 kmh 29.74 in1007.1 mb 0.00 in0.0 mm 0.00 in0.0 mm 0.00 in0.0 mm
01:04 PM 78.1°F25.6°C -165.0°F-109.4°C - Calm Calm 0.6 mph1.0 kmh 29.74 in1007.1 mb 0.00 in0.0 mm 0.00 in0.0 mm 0.00 in0.0 mm
01:19 PM 77.5°F25.3°C -165.0°F-109.4°C - Calm Calm 1.4 mph2.3 kmh 29.75 in1007.5 mb 0.00 in0.0 mm 0.00 in0.0 mm 0.00 in0.0 mm
01:34 PM 76.8°F24.9°C -165.1°F-109.5°C - Calm Calm 1.4 mph2.3 kmh 29.74 in1007.1 mb 0.00 in0.0 mm 0.00 in0.0 mm 0.00 in0.0 mm
01:49 PM 77.7°F25.4°C -165.0°F-109.4°C - Calm Calm 0.6 mph1.0 kmh 29.75 in1007.5 mb 0.00 in0.0 mm 0.00 in0.0 mm 0.00 in0.0 mm
02:04 PM 77.7°F25.4°C -165.0°F-109.4°C - Calm Calm 0.6 mph1.0 kmh 29.74 in1007.1 mb 0.00 in0.0 mm 0.00 in0.0 mm 0.00 in0.0 mm
02:19 PM 78.1°F25.6°C -165.0°F-109.4°C - Calm Calm 0.6 mph1.0 kmh 29.74 in1007.1 mb 0.00 in0.0 mm 0.00 in0.0 mm 0.00 in0.0 mm
02:34 PM 78.4°F25.8°C -165.0°F-109.4°C - Calm Calm 0.6 mph1.0 kmh 29.74 in1007.1 mb 0.00 in0.0 mm 0.00 in0.0 mm 0.00 in0.0 mm
02:49 PM 78.3°F25.7°C -165.0°F-109.4°C - Calm Calm 1.4 mph2.3 kmh 29.74 in1007.1 mb 0.00 in0.0 mm 0.00 in0.0 mm 0.00 in0.0 mm
03:04 PM 77.9°F25.5°C -165.0°F-109.4°C - Calm Calm 0.6 mph1.0 kmh 29.74 in1007.1 mb 0.00 in0.0 mm 0.00 in0.0 mm 0.00 in0.0 mm
03:19 PM 77.4°F25.2°C -165.1°F-109.5°C - Calm Calm 0.6 mph1.0 kmh 29.74 in1007.1 mb 0.00 in0.0 mm 0.00 in0.0 mm 0.00 in0.0 mm
03:34 PM 77.7°F25.4°C -165.0°F-109.4°C - Calm Calm 0.6 mph1.0 kmh 29.74 in1007.1 mb 0.00 in0.0 mm 0.00 in0.0 mm 0.00 in0.0 mm
03:49 PM 77.4°F25.2°C -165.1°F-109.5°C - Calm Calm 2.0 mph3.2 kmh 29.73 in1006.8 mb 0.00 in0.0 mm 0.00 in0.0 mm 0.00 in0.0 mm
04:04 PM 77.2°F25.1°C -165.1°F-109.5°C - Calm Calm -- 29.74 in1007.1 mb 0.00 in0.0 mm 0.00 in0.0 mm 0.00 in0.0 mm
04:19 PM 77.0°F25.0°C -165.1°F-109.5°C - Calm Calm 2.8 mph4.5 kmh 29.74 in1007.1 mb 0.00 in0.0 mm 0.00 in0.0 mm 0.00 in0.0 mm
04:34 PM 77.0°F25.0°C -165.1°F-109.5°C - Calm Calm 2.0 mph3.2 kmh 29.73 in1006.8 mb 0.00 in0.0 mm 0.00 in0.0 mm 0.00 in0.0 mm
04:49 PM 76.8°F24.9°C -165.1°F-109.5°C - Calm Calm 0.6 mph1.0 kmh 29.73 in1006.8 mb 0.00 in0.0 mm 0.00 in0.0 mm 0.00 in0.0 mm
05:04 PM 76.6°F24.8°C -165.1°F-109.5°C - Calm Calm 0.6 mph1.0 kmh 29.73 in1006.8 mb 0.00 in0.0 mm 0.00 in0.0 mm 0.00 in0.0 mm
05:19 PM 76.5°F24.7°C -165.2°F-109.6°C - Calm Calm -- 29.73 in1006.8 mb 0.00 in0.0 mm 0.00 in0.0 mm 0.00 in0.0 mm
05:34 PM 76.5°F24.7°C -165.2°F-109.6°C - Calm Calm 0.6 mph1.0 kmh 29.73 in1006.8 mb 0.00 in0.0 mm 0.00 in0.0 mm 0.00 in0.0 mm
05:49 PM 75.6°F24.2°C -165.2°F-109.6°C - Calm Calm 0.6 mph1.0 kmh 29.73 in1006.8 mb 0.00 in0.0 mm 0.00 in0.0 mm 0.00 in0.0 mm
06:04 PM 75.7°F24.3°C -165.2°F-109.6°C - Calm Calm 0.6 mph1.0 kmh 29.73 in1006.8 mb 0.00 in0.0 mm 0.00 in0.0 mm 0.00 in0.0 mm
06:19 PM 76.1°F24.5°C -165.2°F-109.6°C - Calm Calm -- 29.73 in1006.8 mb 0.00 in0.0 mm 0.00 in0.0 mm 0.00 in0.0 mm
06:34 PM 76.1°F24.5°C -165.2°F-109.6°C - Calm Calm 1.4 mph2.3 kmh 29.72 in1006.4 mb 0.00 in0.0 mm 0.00 in0.0 mm 0.00 in0.0 mm
06:49 PM 75.4°F24.1°C -165.3°F-109.6°C - Calm Calm -- 29.72 in1006.4 mb 0.00 in0.0 mm 0.00 in0.0 mm 0.00 in0.0 mm
07:04 PM 75.0°F23.9°C -165.3°F-109.6°C - Calm Calm -- 29.72 in1006.4 mb 0.00 in0.0 mm 0.00 in0.0 mm 0.00 in0.0 mm
07:19 PM 74.5°F23.6°C -165.4°F-109.7°C - Calm Calm -- 29.72 in1006.4 mb 0.00 in0.0 mm 0.00 in0.0 mm 0.00 in0.0 mm
07:34 PM 73.8°F23.2°C -165.4°F-109.7°C - Calm Calm 0.6 mph1.0 kmh 29.72 in1006.4 mb 0.00 in0.0 mm 0.00 in0.0 mm 0.00 in0.0 mm
07:49 PM 73.2°F22.9°C -165.5°F-109.7°C - Calm Calm 1.4 mph2.3 kmh 29.73 in1006.8 mb 0.00 in0.0 mm 0.00 in0.0 mm 0.00 in0.0 mm
08:04 PM 72.7°F22.6°C -165.5°F-109.7°C - Calm Calm -- 29.73 in1006.8 mb 0.00 in0.0 mm 0.00 in0.0 mm 0.00 in0.0 mm
08:19 PM 72.0°F22.2°C -165.6°F-109.8°C - Calm Calm 0.6 mph1.0 kmh 29.73 in1006.8 mb 0.00 in0.0 mm 0.00 in0.0 mm 0.00 in0.0 mm
08:34 PM 71.2°F21.8°C -165.7°F-109.8°C - Calm Calm 1.4 mph2.3 kmh 29.73 in1006.8 mb 0.00 in0.0 mm 0.00 in0.0 mm 0.00 in0.0 mm
08:49 PM 70.9°F21.6°C -165.7°F-109.8°C - Calm Calm 1.4 mph2.3 kmh 29.73 in1006.8 mb 0.00 in0.0 mm 0.00 in0.0 mm 0.00 in0.0 mm
09:04 PM 70.5°F21.4°C -165.7°F-109.8°C - 0.6 mph N1.0 kmh N 1.4 mph2.3 kmh 29.73 in1006.8 mb 0.00 in0.0 mm 0.00 in0.0 mm 0.00 in0.0 mm
09:19 PM 70.0°F21.1°C -165.8°F-109.9°C - Calm Calm 2.0 mph3.2 kmh 29.73 in1006.8 mb 0.00 in0.0 mm 0.00 in0.0 mm 0.00 in0.0 mm
09:34 PM 69.8°F21.0°C -165.8°F-109.9°C - Calm Calm 0.6 mph1.0 kmh 29.73 in1006.8 mb 0.00 in0.0 mm 0.00 in0.0 mm 0.00 in0.0 mm
09:49 PM 69.1°F20.6°C -165.9°F-109.9°C - Calm Calm 1.4 mph2.3 kmh 29.73 in1006.8 mb 0.00 in0.0 mm 0.00 in0.0 mm 0.00 in0.0 mm
10:04 PM 68.5°F20.3°C -165.9°F-109.9°C - 0.6 mph N1.0 kmh N 1.4 mph2.3 kmh 29.73 in1006.8 mb 0.00 in0.0 mm 0.00 in0.0 mm 0.00 in0.0 mm
10:19 PM 68.0°F20.0°C -166.0°F-110.0°C - 1.4 mph N2.3 kmh N 2.8 mph4.5 kmh 29.73 in1006.8 mb 0.00 in0.0 mm 0.00 in0.0 mm 0.00 in0.0 mm
10:34 PM 67.6°F19.8°C -166.0°F-110.0°C - 0.6 mph N1.0 kmh N 2.8 mph4.5 kmh 29.73 in1006.8 mb 0.00 in0.0 mm 0.00 in0.0 mm 0.00 in0.0 mm
10:49 PM 67.6°F19.8°C -166.0°F-110.0°C - 0.6 mph N1.0 kmh N 2.8 mph4.5 kmh 29.74 in1007.1 mb 0.00 in0.0 mm 0.00 in0.0 mm 0.00 in0.0 mm
11:04 PM 67.5°F19.7°C -166.1°F-110.1°C - Calm Calm 2.0 mph3.2 kmh 29.73 in1006.8 mb 0.00 in0.0 mm 0.00 in0.0 mm 0.00 in0.0 mm
11:19 PM 67.5°F19.7°C -166.1°F-110.1°C - 0.6 mph N1.0 kmh N 2.8 mph4.5 kmh 29.73 in1006.8 mb 0.00 in0.0 mm 0.00 in0.0 mm 0.00 in0.0 mm
11:34 PM 67.5°F19.7°C -166.1°F-110.1°C - 1.4 mph N2.3 kmh N 3.4 mph5.5 kmh 29.73 in1006.8 mb 0.00 in0.0 mm 0.00 in0.0 mm 0.00 in0.0 mm
11:49 PM 67.5°F19.7°C -166.1°F-110.1°C - 1.4 mph N2.3 kmh N 2.8 mph4.5 kmh 29.73 in1006.8 mb 0.00 in0.0 mm 0.00 in0.0 mm 0.00 in0.0 mm